Time;durP1;ratioP1;P1;durP2;ratioP2;P2;SDS_P1;SDS_P2;PMS_P1;PMS_P2;Temp;Humidity;BMP_temperature;BMP_pressure;BME280_temperature;BME280_humidity;BME280_pressure;Samples;Min_cycle;Max_cycle;Signal;HPM_P1;HPM_P2
2023/12/03 00:00:39;;;;;;;46.53;14.80;;;;;;;;;;5073954;28;20051;-27
2023/12/03 00:03:04;;;;;;;40.35;15.65;;;;;;;;;;5073778;28;20415;-28
2023/12/03 00:05:29;;;;;;;41.45;14.88;;;;;;;;;;5073720;28;20027;-27
2023/12/03 00:07:54;;;;;;;45.17;16.60;;;;;;;;;;5074246;28;20103;-27
2023/12/03 00:10:19;;;;;;;42.17;15.60;;;;;;;;;;5073531;28;20251;-28
2023/12/03 00:12:44;;;;;;;46.45;15.63;;;;;;;;;;5073569;28;20490;-27
2023/12/03 00:15:10;;;;;;;41.43;15.13;;;;;;;;;;5073864;28;20032;-27
2023/12/03 00:17:35;;;;;;;39.72;15.10;;;;;;;;;;5073828;28;20797;-27
2023/12/03 00:20:00;;;;;;;37.17;14.40;;;;;;;;;;5073545;28;20013;-27
2023/12/03 00:22:25;;;;;;;39.72;15.10;;;;;;;;;;5073374;28;20368;-27
2023/12/03 00:24:50;;;;;;;35.30;14.52;;;;;;;;;;5074032;28;20027;-27
2023/12/03 00:27:16;;;;;;;35.60;14.52;;;;;;;;;;5074043;28;20021;-28
2023/12/03 00:29:41;;;;;;;37.17;14.52;;;;;;;;;;5073669;28;20515;-27
2023/12/03 00:32:06;;;;;;;36.23;14.50;;;;;;;;;;5073402;28;20020;-27
2023/12/03 00:34:31;;;;;;;33.38;14.30;;;;;;;;;;5073307;28;20263;-27
2023/12/03 00:36:56;;;;;;;34.70;14.38;;;;;;;;;;5073344;28;20029;-27
2023/12/03 00:39:22;;;;;;;38.53;14.80;;;;;;;;;;5073287;28;20456;-28
2023/12/03 00:41:47;;;;;;;31.50;13.45;;;;;;;;;;5073192;28;20291;-27
2023/12/03 00:44:13;;;;;;;33.55;14.13;;;;;;;;;;5073815;28;20020;-27
2023/12/03 00:46:38;;;;;;;37.42;14.43;;;;;;;;;;5073537;28;20020;-27
2023/12/03 00:49:03;;;;;;;34.65;14.98;;;;;;;;;;5073186;28;20372;-27
2023/12/03 00:51:28;;;;;;;36.38;14.70;;;;;;;;;;5073765;28;20048;-27
2023/12/03 00:53:53;;;;;;;35.43;14.87;;;;;;;;;;5073217;28;20421;-28
2023/12/03 00:56:19;;;;;;;35.05;14.63;;;;;;;;;;5073120;28;20274;-27
2023/12/03 00:58:44;;;;;;;38.92;15.40;;;;;;;;;;5073152;28;20553;-27
2023/12/03 01:01:09;;;;;;;35.58;14.75;;;;;;;;;;5072868;28;20045;-27
2023/12/03 01:03:34;;;;;;;34.37;15.37;;;;;;;;;;5073133;28;20020;-27
2023/12/03 01:06:00;;;;;;;35.53;15.43;;;;;;;;;;5073342;28;20243;-27
2023/12/03 01:08:25;;;;;;;41.10;16.10;;;;;;;;;;5073012;28;20355;-27
2023/12/03 01:10:50;;;;;;;39.07;15.53;;;;;;;;;;5073552;28;20025;-27
2023/12/03 01:13:15;;;;;;;39.40;15.77;;;;;;;;;;5072922;28;20610;-27
2023/12/03 01:15:40;;;;;;;46.13;16.65;;;;;;;;;;5072964;28;20342;-27
2023/12/03 01:18:06;;;;;;;42.72;15.98;;;;;;;;;;5072948;28;20016;-27
2023/12/03 01:20:32;;;;;;;40.42;16.33;;;;;;;;;;5072922;28;20099;-27
2023/12/03 01:22:57;;;;;;;42.33;16.45;;;;;;;;;;5075539;28;20016;-27
2023/12/03 01:25:22;;;;;;;42.17;15.75;;;;;;;;;;5076646;28;20491;-28
2023/12/03 01:27:48;;;;;;;40.23;15.37;;;;;;;;;;5076904;28;20009;-27
2023/12/03 01:30:13;;;;;;;47.47;16.55;;;;;;;;;;5076540;28;20259;-27
2023/12/03 01:32:39;;;;;;;42.47;17.13;;;;;;;;;;5077062;28;20023;-27
2023/12/03 01:35:04;;;;;;;43.05;16.90;;;;;;;;;;5076556;28;20051;-27
2023/12/03 01:37:29;;;;;;;46.33;17.60;;;;;;;;;;5076444;28;20021;-27
2023/12/03 01:39:55;;;;;;;45.90;17.63;;;;;;;;;;5076404;28;20016;-27
2023/12/03 01:42:20;;;;;;;44.50;17.27;;;;;;;;;;5076871;28;20032;-28
2023/12/03 01:44:45;;;;;;;52.30;17.35;;;;;;;;;;5076399;28;20289;-27
2023/12/03 01:47:12;;;;;;;45.85;18.48;;;;;;;;;;5076311;28;20027;-27
2023/12/03 01:49:37;;;;;;;48.35;18.17;;;;;;;;;;5076192;28;20016;-27
2023/12/03 01:52:03;;;;;;;47.67;18.53;;;;;;;;;;5076509;28;20063;-27
2023/12/03 01:54:32;;;;;;;49.40;17.92;;;;;;;;;;5076468;28;20266;-27
2023/12/03 01:56:58;;;;;;;48.22;18.92;;;;;;;;;;5076771;28;20025;-27
2023/12/03 01:59:23;;;;;;;48.70;18.65;;;;;;;;;;5075951;28;20487;-27
2023/12/03 02:01:49;;;;;;;48.22;18.95;;;;;;;;;;5074864;28;20206;-27
2023/12/03 02:04:14;;;;;;;49.10;18.73;;;;;;;;;;5075983;28;20036;-27
2023/12/03 02:06:39;;;;;;;43.97;17.33;;;;;;;;;;5076536;28;20183;-27
2023/12/03 02:09:05;;;;;;;44.80;17.98;;;;;;;;;;5075922;28;20251;-27
2023/12/03 02:11:30;;;;;;;44.45;18.15;;;;;;;;;;5076046;28;20016;-27
2023/12/03 02:13:56;;;;;;;45.67;17.70;;;;;;;;;;5075915;28;20421;-27
2023/12/03 02:16:21;;;;;;;42.83;17.50;;;;;;;;;;5075827;28;20338;-27
2023/12/03 02:18:46;;;;;;;41.67;15.88;;;;;;;;;;5076022;28;20024;-27
2023/12/03 02:21:11;;;;;;;47.33;18.10;;;;;;;;;;5075654;28;20086;-27
2023/12/03 02:23:37;;;;;;;39.17;16.73;;;;;;;;;;5075929;28;20255;-27
2023/12/03 02:26:02;;;;;;;41.25;16.80;;;;;;;;;;5075515;28;20269;-27
2023/12/03 02:28:27;;;;;;;39.78;16.63;;;;;;;;;;5075819;28;20107;-27
2023/12/03 02:30:53;;;;;;;41.97;17.10;;;;;;;;;;5074208;28;20379;-27
2023/12/03 02:33:18;;;;;;;40.05;16.40;;;;;;;;;;5074917;28;20024;-28
2023/12/03 02:35:43;;;;;;;37.40;16.40;;;;;;;;;;5075686;28;20028;-27
2023/12/03 02:38:08;;;;;;;37.33;16.37;;;;;;;;;;5075674;28;20024;-27
2023/12/03 02:40:35;;;;;;;40.38;16.17;;;;;;;;;;5075240;28;20364;-27
2023/12/03 02:43:00;;;;;;;37.00;16.38;;;;;;;;;;5075998;28;20449;-28
2023/12/03 02:45:25;;;;;;;36.80;16.50;;;;;;;;;;5075206;28;20021;-27
2023/12/03 02:47:50;;;;;;;40.50;16.55;;;;;;;;;;5075136;28;20109;-27
2023/12/03 02:50:16;;;;;;;43.28;16.85;;;;;;;;;;5075218;28;20052;-27
2023/12/03 02:52:41;;;;;;;39.87;17.03;;;;;;;;;;5074626;28;20017;-27
2023/12/03 02:55:06;;;;;;;41.45;16.25;;;;;;;;;;5074524;28;20267;-27
2023/12/03 02:57:32;;;;;;;38.65;15.40;;;;;;;;;;5074137;28;20464;-27
2023/12/03 02:59:57;;;;;;;42.67;16.77;;;;;;;;;;5074371;28;20060;-27
2023/12/03 03:02:22;;;;;;;39.97;16.97;;;;;;;;;;5074301;28;20459;-28
2023/12/03 03:04:47;;;;;;;35.87;15.57;;;;;;;;;;5074579;28;20334;-27
2023/12/03 03:07:12;;;;;;;38.25;16.70;;;;;;;;;;5074711;28;20262;-27
2023/12/03 03:09:37;;;;;;;43.23;16.73;;;;;;;;;;5075238;28;20016;-27
2023/12/03 03:12:03;;;;;;;40.47;16.53;;;;;;;;;;5074974;28;20338;-27
2023/12/03 03:14:28;;;;;;;37.42;17.10;;;;;;;;;;5074885;28;20289;-27
2023/12/03 03:16:53;;;;;;;37.17;16.30;;;;;;;;;;5074564;28;20035;-27
2023/12/03 03:19:18;;;;;;;41.13;17.20;;;;;;;;;;5075093;28;20119;-27
2023/12/03 03:21:43;;;;;;;39.78;16.63;;;;;;;;;;5074681;28;20281;-27
2023/12/03 03:24:09;;;;;;;41.80;17.07;;;;;;;;;;5075053;28;20012;-27
2023/12/03 03:26:34;;;;;;;40.75;17.40;;;;;;;;;;5074678;28;20316;-27
2023/12/03 03:28:59;;;;;;;39.73;16.43;;;;;;;;;;5074332;28;20028;-27
2023/12/03 03:31:24;;;;;;;40.10;17.35;;;;;;;;;;5074907;28;20278;-27
2023/12/03 03:33:50;;;;;;;37.73;17.23;;;;;;;;;;5074496;28;20036;-27
2023/12/03 03:36:15;;;;;;;37.70;18.05;;;;;;;;;;5074117;28;20345;-32
2023/12/03 03:38:41;;;;;;;38.53;17.38;;;;;;;;;;5074373;28;20017;-27
2023/12/03 03:41:06;;;;;;;47.22;17.90;;;;;;;;;;5073960;28;20025;-27
2023/12/03 03:43:32;;;;;;;37.40;17.92;;;;;;;;;;5073922;28;20028;-27
2023/12/03 03:45:57;;;;;;;37.87;17.27;;;;;;;;;;5073587;28;20023;-27
2023/12/03 03:48:22;;;;;;;38.17;18.05;;;;;;;;;;5073883;28;20787;-28
2023/12/03 03:50:47;;;;;;;40.35;19.42;;;;;;;;;;5073913;28;20024;-27
2023/12/03 03:53:13;;;;;;;43.10;20.42;;;;;;;;;;5074468;28;20110;-27
2023/12/03 03:55:38;;;;;;;40.58;20.05;;;;;;;;;;5074107;28;20017;-27
2023/12/03 03:58:03;;;;;;;41.60;20.47;;;;;;;;;;5074076;28;20448;-27
2023/12/03 04:00:28;;;;;;;41.25;20.88;;;;;;;;;;5074000;28;20289;-29
2023/12/03 04:02:54;;;;;;;39.95;20.13;;;;;;;;;;5074380;28;20034;-27
2023/12/03 04:05:19;;;;;;;40.85;21.05;;;;;;;;;;5072468;28;20452;-27
2023/12/03 04:07:44;;;;;;;39.22;20.95;;;;;;;;;;5073931;28;20455;-27
2023/12/03 04:10:10;;;;;;;40.70;20.63;;;;;;;;;;5073686;28;20021;-27
2023/12/03 04:12:35;;;;;;;37.58;19.60;;;;;;;;;;5073534;28;20257;-27
2023/12/03 04:15:01;;;;;;;38.80;20.00;;;;;;;;;;5073807;28;20017;-28
2023/12/03 04:17:26;;;;;;;36.53;18.85;;;;;;;;;;5073797;28;20479;-27
2023/12/03 04:19:51;;;;;;;42.88;20.05;;;;;;;;;;5073791;28;20447;-27
2023/12/03 04:22:16;;;;;;;35.55;19.17;;;;;;;;;;5073772;28;20021;-27
2023/12/03 04:24:44;;;;;;;35.70;19.47;;;;;;;;;;5074290;28;20020;-27
2023/12/03 04:27:09;;;;;;;36.35;18.92;;;;;;;;;;5073727;28;20259;-27
2023/12/03 04:29:34;;;;;;;38.08;19.50;;;;;;;;;;5073460;28;20012;-27
2023/12/03 04:31:59;;;;;;;35.03;19.37;;;;;;;;;;5073702;28;20021;-27
2023/12/03 04:34:25;;;;;;;33.28;18.58;;;;;;;;;;5073654;28;20275;-27
2023/12/03 04:36:50;;;;;;;32.77;17.90;;;;;;;;;;5073958;28;20070;-27
2023/12/03 04:39:15;;;;;;;34.07;18.13;;;;;;;;;;5073315;28;20673;-27
2023/12/03 04:41:40;;;;;;;37.57;18.33;;;;;;;;;;5073910;28;20286;-27
2023/12/03 04:44:05;;;;;;;35.53;17.83;;;;;;;;;;5073298;28;20298;-27
2023/12/03 04:46:31;;;;;;;30.05;16.33;;;;;;;;;;5073233;28;20251;-27
2023/12/03 04:48:56;;;;;;;32.13;16.70;;;;;;;;;;5073454;28;20021;-27
2023/12/03 04:51:21;;;;;;;28.00;16.35;;;;;;;;;;5071838;28;20020;-28
2023/12/03 04:53:46;;;;;;;30.75;16.33;;;;;;;;;;5073512;28;20098;-27
2023/12/03 04:56:12;;;;;;;34.40;16.43;;;;;;;;;;5073828;28;20051;-27
2023/12/03 04:58:37;;;;;;;29.02;16.20;;;;;;;;;;5076951;28;20642;-27
2023/12/03 05:01:02;;;;;;;29.08;15.80;;;;;;;;;;5076957;28;20083;-25
2023/12/03 05:03:27;;;;;;;31.00;15.27;;;;;;;;;;5077659;28;20447;-26
2023/12/03 05:05:52;;;;;;;30.30;15.98;;;;;;;;;;5077120;28;20478;-26
2023/12/03 05:08:18;;;;;;;32.22;16.00;;;;;;;;;;5077292;28;20104;-26
2023/12/03 05:10:43;;;;;;;29.35;16.13;;;;;;;;;;5077261;28;20087;-26
2023/12/03 05:13:08;;;;;;;28.85;15.95;;;;;;;;;;5077448;28;20054;-26
2023/12/03 05:15:33;;;;;;;32.65;16.10;;;;;;;;;;5077157;28;20071;-26
2023/12/03 05:17:59;;;;;;;31.15;15.80;;;;;;;;;;5076821;28;20119;-26
2023/12/03 05:20:24;;;;;;;32.75;15.95;;;;;;;;;;5077072;28;20009;-26
2023/12/03 05:22:51;;;;;;;30.63;15.18;;;;;;;;;;5076651;28;20020;-26
2023/12/03 05:25:16;;;;;;;30.80;15.82;;;;;;;;;;5077206;28;20069;-26
2023/12/03 05:27:41;;;;;;;33.70;15.77;;;;;;;;;;5076710;28;20466;-26
2023/12/03 05:30:07;;;;;;;29.67;15.60;;;;;;;;;;5076637;28;20024;-26
2023/12/03 05:32:32;;;;;;;29.55;15.20;;;;;;;;;;5076497;28;20344;-26
2023/12/03 05:34:57;;;;;;;29.95;16.23;;;;;;;;;;5076588;28;20101;-26
2023/12/03 05:37:23;;;;;;;33.33;16.30;;;;;;;;;;5076662;28;20470;-27
2023/12/03 05:39:48;;;;;;;30.52;15.07;;;;;;;;;;5076385;28;20013;-26
2023/12/03 05:42:13;;;;;;;30.33;15.80;;;;;;;;;;5076942;28;20013;-26
2023/12/03 05:44:38;;;;;;;33.08;16.13;;;;;;;;;;5076348;28;20251;-26
2023/12/03 05:47:04;;;;;;;31.38;16.55;;;;;;;;;;5076887;28;20111;-26
2023/12/03 05:49:29;;;;;;;30.35;16.45;;;;;;;;;;5076247;28;20398;-26
2023/12/03 05:51:54;;;;;;;30.75;15.85;;;;;;;;;;5076224;28;20021;-26
2023/12/03 05:54:19;;;;;;;28.73;14.63;;;;;;;;;;5076447;28;20025;-26
2023/12/03 05:56:45;;;;;;;31.90;15.27;;;;;;;;;;5076167;28;20040;-26
2023/12/03 05:59:10;;;;;;;37.80;16.13;;;;;;;;;;5076440;28;20059;-26
2023/12/03 06:01:35;;;;;;;30.70;16.20;;;;;;;;;;5076014;28;20031;-26
2023/12/03 06:04:06;;;;;;;33.17;16.30;;;;;;;;;;5076299;28;20092;-26
2023/12/03 06:06:31;;;;;;;30.48;15.05;;;;;;;;;;5076259;28;20029;-26
2023/12/03 06:08:56;;;;;;;32.60;15.15;;;;;;;;;;5076305;28;20125;-26
2023/12/03 06:11:21;;;;;;;33.63;16.10;;;;;;;;;;5075850;28;20024;-26
2023/12/03 06:13:47;;;;;;;30.90;15.27;;;;;;;;;;5075882;28;20259;-26
2023/12/03 06:16:12;;;;;;;30.02;15.45;;;;;;;;;;5075793;28;20066;-26
2023/12/03 06:18:37;;;;;;;34.23;16.57;;;;;;;;;;5076294;28;20021;-26
2023/12/03 06:21:03;;;;;;;31.48;15.32;;;;;;;;;;5076153;28;20309;-26
2023/12/03 06:23:28;;;;;;;35.90;16.65;;;;;;;;;;5075902;28;20012;-26
2023/12/03 06:25:53;;;;;;;35.47;17.40;;;;;;;;;;5076132;28;20071;-27
2023/12/03 06:28:18;;;;;;;32.67;15.43;;;;;;;;;;5075352;28;20039;-26
2023/12/03 06:30:43;;;;;;;34.67;14.88;;;;;;;;;;5075018;28;20354;-26
2023/12/03 06:33:09;;;;;;;32.33;15.32;;;;;;;;;;5074975;28;20380;-26
2023/12/03 06:35:34;;;;;;;36.50;15.32;;;;;;;;;;5074886;28;20371;-26
2023/12/03 06:37:59;;;;;;;35.88;16.73;;;;;;;;;;5074948;28;20013;-26
2023/12/03 06:40:24;;;;;;;37.60;16.27;;;;;;;;;;5074964;28;20013;-26
2023/12/03 06:42:49;;;;;;;37.90;16.83;;;;;;;;;;5075026;28;20285;-27
2023/12/03 06:45:15;;;;;;;36.83;17.10;;;;;;;;;;5075747;28;20023;-27
2023/12/03 06:47:40;;;;;;;41.83;17.15;;;;;;;;;;5075487;28;20017;-26
2023/12/03 06:50:05;;;;;;;38.88;16.77;;;;;;;;;;5075836;28;20062;-26
2023/12/03 06:52:30;;;;;;;41.22;17.80;;;;;;;;;;5076090;28;20020;-26
2023/12/03 06:54:56;;;;;;;33.47;15.47;;;;;;;;;;5075592;28;20026;-26
2023/12/03 06:57:21;;;;;;;39.17;17.63;;;;;;;;;;5074976;28;20610;-26
2023/12/03 06:59:46;;;;;;;40.03;18.05;;;;;;;;;;5074784;28;20337;-26
2023/12/03 07:02:11;;;;;;;38.30;17.48;;;;;;;;;;5074806;28;20429;-26
2023/12/03 07:04:36;;;;;;;39.25;17.50;;;;;;;;;;5074854;28;20016;-26
2023/12/03 07:07:02;;;;;;;47.22;18.35;;;;;;;;;;5074755;28;20040;-26
2023/12/03 07:09:27;;;;;;;39.95;17.17;;;;;;;;;;5074804;28;20039;-26
2023/12/03 07:11:52;;;;;;;40.08;18.13;;;;;;;;;;5074950;28;20142;-26
2023/12/03 07:14:17;;;;;;;41.60;17.07;;;;;;;;;;5074681;28;20395;-26
2023/12/03 07:16:42;;;;;;;40.80;16.83;;;;;;;;;;5074601;28;20266;-26
2023/12/03 07:19:08;;;;;;;44.47;18.40;;;;;;;;;;5074137;28;20342;-26
2023/12/03 07:21:33;;;;;;;43.60;17.63;;;;;;;;;;5074556;28;20278;-26
2023/12/03 07:23:58;;;;;;;38.42;17.05;;;;;;;;;;5074407;28;20096;-26
2023/12/03 07:26:23;;;;;;;42.40;16.93;;;;;;;;;;5074409;28;20038;-26
2023/12/03 07:28:48;;;;;;;48.60;18.92;;;;;;;;;;5074867;28;20247;-26
2023/12/03 07:31:15;;;;;;;46.63;18.80;;;;;;;;;;5074373;28;20454;-26
2023/12/03 07:33:40;;;;;;;47.58;18.85;;;;;;;;;;5074193;28;20267;-26
2023/12/03 07:36:05;;;;;;;45.97;17.37;;;;;;;;;;5074780;28;20023;-26
2023/12/03 07:38:31;;;;;;;44.17;18.40;;;;;;;;;;5074099;28;20258;-26
2023/12/03 07:40:56;;;;;;;49.13;18.67;;;;;;;;;;5072909;28;20013;-26
2023/12/03 07:43:21;;;;;;;45.78;17.17;;;;;;;;;;5074689;28;20520;-26
2023/12/03 07:45:46;;;;;;;42.47;18.02;;;;;;;;;;5074052;28;20096;-26
2023/12/03 07:48:12;;;;;;;47.08;17.83;;;;;;;;;;5074540;28;20065;-26
2023/12/03 07:50:37;;;;;;;46.78;18.27;;;;;;;;;;5073913;28;20463;-27
2023/12/03 07:53:03;;;;;;;42.40;16.27;;;;;;;;;;5073886;28;20016;-27
2023/12/03 07:55:28;;;;;;;43.63;17.98;;;;;;;;;;5073862;28;20027;-26
2023/12/03 07:57:53;;;;;;;41.67;17.13;;;;;;;;;;5074352;28;20020;-26
2023/12/03 08:00:19;;;;;;;43.50;18.30;;;;;;;;;;5073742;28;20048;-26
2023/12/03 08:02:44;;;;;;;44.63;17.88;;;;;;;;;;5073725;28;20020;-26
2023/12/03 08:05:09;;;;;;;39.05;16.55;;;;;;;;;;5073765;28;20070;-26
2023/12/03 08:07:34;;;;;;;49.78;18.73;;;;;;;;;;5073925;28;20375;-26
2023/12/03 08:10:00;;;;;;;49.40;17.88;;;;;;;;;;5073654;28;20055;-26
2023/12/03 08:12:25;;;;;;;50.58;18.10;;;;;;;;;;5073540;28;20060;-26
2023/12/03 08:14:50;;;;;;;42.42;18.38;;;;;;;;;;5073523;28;20111;-26
2023/12/03 08:17:15;;;;;;;45.28;17.65;;;;;;;;;;5074075;28;20123;-26
2023/12/03 08:19:40;;;;;;;43.50;17.00;;;;;;;;;;5072215;28;20021;-26
2023/12/03 08:22:07;;;;;;;42.67;17.70;;;;;;;;;;5073655;28;20103;-26
2023/12/03 08:24:33;;;;;;;43.33;18.15;;;;;;;;;;5073431;28;20059;-27
2023/12/03 08:26:58;;;;;;;46.28;18.35;;;;;;;;;;5073659;28;20029;-27
2023/12/03 08:29:23;;;;;;;49.55;18.48;;;;;;;;;;5073500;28;20022;-27
2023/12/03 08:31:49;;;;;;;42.53;18.27;;;;;;;;;;5072723;28;20020;-27
2023/12/03 08:34:15;;;;;;;38.33;15.80;;;;;;;;;;5073719;28;20376;-28
2023/12/03 08:36:40;;;;;;;40.67;16.35;;;;;;;;;;5073605;28;20023;-27
2023/12/03 08:39:07;;;;;;;44.92;18.10;;;;;;;;;;5073321;28;20048;-27
2023/12/03 08:41:33;;;;;;;50.17;19.17;;;;;;;;;;5073491;28;20024;-27
2023/12/03 08:43:58;;;;;;;43.42;17.92;;;;;;;;;;5073801;28;20066;-27
2023/12/03 08:46:24;;;;;;;43.97;18.50;;;;;;;;;;5073532;28;20044;-27
2023/12/03 08:48:49;;;;;;;41.22;18.13;;;;;;;;;;5073153;28;20266;-27
2023/12/03 08:51:15;;;;;;;42.67;16.20;;;;;;;;;;5073244;28;20017;-27
2023/12/03 08:53:41;;;;;;;44.88;18.42;;;;;;;;;;5073364;28;20356;-27
2023/12/03 08:56:09;;;;;;;42.65;17.83;;;;;;;;;;5073165;28;20047;-28
2023/12/03 08:58:34;;;;;;;44.28;17.50;;;;;;;;;;5073907;28;20055;-27
2023/12/03 09:00:59;;;;;;;43.45;17.98;;;;;;;;;;5072955;28;20079;-27
2023/12/03 09:03:25;;;;;;;41.63;18.20;;;;;;;;;;5073116;28;20085;-28
2023/12/03 09:05:50;;;;;;;40.05;16.27;;;;;;;;;;5073316;28;20470;-27
2023/12/03 09:08:15;;;;;;;40.87;17.07;;;;;;;;;;5073101;28;20017;-27
2023/12/03 09:10:40;;;;;;;42.90;17.17;;;;;;;;;;5073079;28;20254;-27
2023/12/03 09:13:06;;;;;;;41.53;17.70;;;;;;;;;;5073201;28;20066;-27
2023/12/03 09:15:31;;;;;;;40.70;17.45;;;;;;;;;;5073086;28;20012;-27
2023/12/03 09:17:56;;;;;;;35.93;15.83;;;;;;;;;;5073549;28;20017;-27
2023/12/03 09:20:21;;;;;;;35.73;16.30;;;;;;;;;;5072962;28;20254;-27
2023/12/03 09:22:46;;;;;;;33.33;14.63;;;;;;;;;;5073200;28;20275;-28
2023/12/03 09:25:11;;;;;;;40.05;16.73;;;;;;;;;;5072950;28;20048;-27
2023/12/03 09:27:37;;;;;;;37.25;16.67;;;;;;;;;;5072895;28;20020;-27
2023/12/03 09:30:04;;;;;;;40.13;16.40;;;;;;;;;;5072940;28;20052;-27
2023/12/03 09:32:29;;;;;;;34.80;15.23;;;;;;;;;;5073205;28;20020;-27
2023/12/03 09:34:54;;;;;;;36.60;15.90;;;;;;;;;;5071576;28;20360;-27
2023/12/03 09:37:20;;;;;;;40.85;16.60;;;;;;;;;;5073425;28;20371;-27
2023/12/03 09:39:45;;;;;;;33.30;14.38;;;;;;;;;;5072862;28;20093;-27
2023/12/03 09:42:12;;;;;;;34.75;15.48;;;;;;;;;;5072644;28;20040;-27
2023/12/03 09:44:40;;;;;;;37.20;15.13;;;;;;;;;;5074884;28;20016;-27
2023/12/03 09:47:06;;;;;;;34.08;14.10;;;;;;;;;;5076659;28;20013;-27
2023/12/03 09:49:31;;;;;;;36.95;15.32;;;;;;;;;;5076663;28;20498;-28
2023/12/03 09:52:02;;;;;;;36.53;15.10;;;;;;;;;;5075087;28;20074;-27
2023/12/03 09:54:28;;;;;;;34.22;15.27;;;;;;;;;;5076490;28;20024;-27
2023/12/03 09:56:55;;;;;;;35.13;15.10;;;;;;;;;;5076398;28;20027;-27
2023/12/03 09:59:21;;;;;;;36.90;14.20;;;;;;;;;;5076109;28;20052;-26
2023/12/03 10:01:47;;;;;;;34.55;14.60;;;;;;;;;;5076306;28;20484;-27
2023/12/03 10:04:12;;;;;;;28.13;14.15;;;;;;;;;;5076557;28;20083;-27
2023/12/03 10:06:41;;;;;;;29.58;15.10;;;;;;;;;;5076290;28;20021;-27
2023/12/03 10:09:07;;;;;;;27.38;15.05;;;;;;;;;;5075966;28;20016;-27
2023/12/03 10:11:37;;;;;;;29.80;15.15;;;;;;;;;;5076295;28;20108;-28
2023/12/03 10:14:05;;;;;;;28.50;14.68;;;;;;;;;;5075933;28;20353;-28
2023/12/03 10:16:30;;;;;;;33.60;15.00;;;;;;;;;;5074660;28;20028;-27
2023/12/03 10:18:55;;;;;;;27.98;15.00;;;;;;;;;;5075832;28;20029;-28
2023/12/03 10:21:21;;;;;;;28.90;15.80;;;;;;;;;;5075935;28;20019;-27
2023/12/03 10:23:56;;;;;;;28.30;15.95;;;;;;;;;;5075699;28;20337;-28
2023/12/03 10:26:21;;;;;;;26.88;14.57;;;;;;;;;;5075703;28;20024;-28
2023/12/03 10:28:46;;;;;;;26.30;14.87;;;;;;;;;;5075680;28;20009;-28
2023/12/03 10:31:12;;;;;;;26.23;15.07;;;;;;;;;;5076063;28;20267;-28
2023/12/03 10:33:38;;;;;;;25.35;15.10;;;;;;;;;;5075501;28;20196;-28
2023/12/03 10:36:03;;;;;;;23.90;14.30;;;;;;;;;;5075473;28;20103;-28
2023/12/03 10:38:41;;;;;;;26.48;15.07;;;;;;;;;;5075345;28;20383;-28
2023/12/03 10:41:07;;;;;;;24.60;14.48;;;;;;;;;;5075638;28;20028;-28
2023/12/03 10:43:37;;;;;;;26.27;15.13;;;;;;;;;;5075614;28;20021;-28
2023/12/03 10:46:05;;;;;;;24.58;14.70;;;;;;;;;;5075863;28;20024;-27
2023/12/03 10:48:31;;;;;;;27.77;13.90;;;;;;;;;;5075401;28;20016;-25
2023/12/03 10:51:02;;;;;;;24.73;13.18;;;;;;;;;;5075489;28;20082;-25
2023/12/03 10:53:29;;;;;;;23.65;12.05;;;;;;;;;;5075437;28;20104;-26
2023/12/03 10:55:54;;;;;;;25.35;12.02;;;;;;;;;;5074390;28;20021;-26
2023/12/03 10:58:20;;;;;;;26.67;12.02;;;;;;;;;;5075031;28;20422;-27
2023/12/03 11:00:48;;;;;;;25.23;11.70;;;;;;;;;;5074949;28;20040;-26
2023/12/03 11:03:18;;;;;;;27.17;11.80;;;;;;;;;;5075153;28;20481;-26
2023/12/03 11:05:52;;;;;;;28.48;12.38;;;;;;;;;;5075125;28;20027;-26
2023/12/03 11:08:19;;;;;;;23.80;10.43;;;;;;;;;;5074787;28;20017;-31
2023/12/03 11:10:44;;;;;;;26.48;11.07;;;;;;;;;;5075284;28;20021;-26
2023/12/03 11:13:11;;;;;;;22.85;10.77;;;;;;;;;;5075195;28;20016;-26
2023/12/03 11:15:37;;;;;;;23.75;10.10;;;;;;;;;;5074907;28;20017;-26
2023/12/03 11:18:02;;;;;;;23.13;10.73;;;;;;;;;;5075153;28;20371;-26
2023/12/03 11:20:30;;;;;;;27.00;10.80;;;;;;;;;;5075151;28;20023;-26
2023/12/03 11:23:05;;;;;;;25.70;10.63;;;;;;;;;;5074375;28;20016;-26
2023/12/03 11:25:35;;;;;;;24.13;10.27;;;;;;;;;;5074781;28;20047;-26
2023/12/03 11:28:00;;;;;;;26.52;11.48;;;;;;;;;;5074398;28;20023;-26
2023/12/03 11:30:39;;;;;;;25.15;10.48;;;;;;;;;;5074649;28;20020;-27
2023/12/03 11:33:14;;;;;;;21.67;9.80;;;;;;;;;;5074245;28;20020;-27
2023/12/03 11:35:43;;;;;;;23.58;10.27;;;;;;;;;;5074305;28;20547;-26
2023/12/03 11:38:14;;;;;;;24.17;9.75;;;;;;;;;;5074485;28;20051;-26
2023/12/03 11:40:39;;;;;;;23.13;9.88;;;;;;;;;;5074132;28;20031;-27
2023/12/03 11:43:21;;;;;;;20.70;9.67;;;;;;;;;;5074076;28;20441;-26
2023/12/03 11:45:46;;;;;;;25.65;10.20;;;;;;;;;;5075102;28;20263;-26
2023/12/03 11:48:11;;;;;;;22.80;9.88;;;;;;;;;;5074307;28;20028;-26
2023/12/03 11:50:37;;;;;;;21.00;9.38;;;;;;;;;;5074253;28;20400;-26
2023/12/03 11:53:03;;;;;;;20.05;9.00;;;;;;;;;;5074532;28;20055;-26
2023/12/03 11:55:31;;;;;;;22.95;9.68;;;;;;;;;;5074089;28;20108;-26
2023/12/03 11:57:56;;;;;;;22.67;9.00;;;;;;;;;;5073893;28;20487;-26
2023/12/03 12:00:24;;;;;;;18.97;8.87;;;;;;;;;;5073940;28;20045;-26
2023/12/03 12:02:49;;;;;;;20.83;9.18;;;;;;;;;;5073887;28;20630;-26
2023/12/03 12:05:15;;;;;;;25.00;9.73;;;;;;;;;;5073697;28;20020;-27
2023/12/03 12:07:40;;;;;;;23.35;9.80;;;;;;;;;;5073673;28;20460;-26
2023/12/03 12:10:06;;;;;;;22.75;9.18;;;;;;;;;;5073856;28;20025;-26
2023/12/03 12:12:31;;;;;;;22.88;9.88;;;;;;;;;;5073846;28;20459;-26
2023/12/03 12:14:56;;;;;;;23.42;10.02;;;;;;;;;;5073628;28;20020;-26
2023/12/03 12:17:22;;;;;;;25.05;9.30;;;;;;;;;;5073505;28;20024;-26
2023/12/03 12:19:47;;;;;;;23.10;9.02;;;;;;;;;;5073474;28;20028;-27
2023/12/03 12:22:16;;;;;;;23.80;9.93;;;;;;;;;;5073853;28;20029;-27
2023/12/03 12:24:44;;;;;;;21.73;9.85;;;;;;;;;;5073939;28;20039;-27
2023/12/03 12:27:09;;;;;;;25.27;10.32;;;;;;;;;;5072670;28;20402;-27
2023/12/03 12:29:34;;;;;;;20.17;9.50;;;;;;;;;;5073001;28;20100;-27
2023/12/03 12:31:59;;;;;;;20.30;8.77;;;;;;;;;;5072167;28;20078;-27
2023/12/03 12:34:25;;;;;;;20.63;9.57;;;;;;;;;;5073078;28;20028;-27
2023/12/03 12:37:01;;;;;;;21.42;9.20;;;;;;;;;;5073011;28;20024;-27
2023/12/03 12:39:27;;;;;;;22.42;9.57;;;;;;;;;;5073245;28;20471;-27
2023/12/03 12:41:55;;;;;;;22.52;10.13;;;;;;;;;;5073497;28;20020;-27
2023/12/03 12:44:21;;;;;;;25.10;10.45;;;;;;;;;;5073256;28;20013;-28
2023/12/03 12:46:55;;;;;;;22.70;10.15;;;;;;;;;;5073590;28;20013;-25
2023/12/03 12:49:20;;;;;;;28.95;10.18;;;;;;;;;;5073555;28;20401;-25
2023/12/03 12:51:46;;;;;;;23.00;9.60;;;;;;;;;;5073230;28;20109;-27
2023/12/03 12:54:12;;;;;;;25.27;10.63;;;;;;;;;;5073782;28;20246;-27
2023/12/03 12:56:37;;;;;;;25.30;10.10;;;;;;;;;;5073596;28;20025;-27
2023/12/03 12:59:03;;;;;;;23.13;9.87;;;;;;;;;;5073644;28;20026;-28
2023/12/03 13:01:30;;;;;;;20.58;9.70;;;;;;;;;;5073435;28;20684;-27
2023/12/03 13:03:55;;;;;;;22.45;9.50;;;;;;;;;;5073201;28;20506;-27
2023/12/03 13:06:20;;;;;;;22.70;9.85;;;;;;;;;;5073450;28;20016;-26
2023/12/03 13:08:46;;;;;;;29.05;11.15;;;;;;;;;;5074035;28;20356;-26
2023/12/03 13:11:11;;;;;;;21.75;10.45;;;;;;;;;;5073128;28;20028;-27
2023/12/03 13:13:36;;;;;;;23.08;10.43;;;;;;;;;;5073123;28;20036;-27
2023/12/03 13:16:02;;;;;;;23.90;10.32;;;;;;;;;;5071805;28;20032;-27
2023/12/03 13:18:27;;;;;;;23.50;9.98;;;;;;;;;;5075245;28;20509;-30
2023/12/03 13:20:52;;;;;;;23.23;10.40;;;;;;;;;;5075614;28;20079;-27
2023/12/03 13:23:18;;;;;;;23.25;10.50;;;;;;;;;;5077213;28;20039;-26
2023/12/03 13:25:43;;;;;;;25.00;10.77;;;;;;;;;;5077186;28;20023;-26
2023/12/03 13:28:08;;;;;;;21.05;9.90;;;;;;;;;;5075732;28;20029;-27
2023/12/03 13:30:34;;;;;;;25.17;10.65;;;;;;;;;;5076846;28;20536;-27
2023/12/03 13:32:59;;;;;;;23.00;10.60;;;;;;;;;;5077005;28;20028;-27
2023/12/03 13:35:24;;;;;;;30.92;10.23;;;;;;;;;;5076960;28;20016;-26
2023/12/03 13:37:49;;;;;;;23.83;9.80;;;;;;;;;;5077190;28;20017;-26
2023/12/03 13:40:15;;;;;;;19.13;9.18;;;;;;;;;;5076518;28;20025;-35
2023/12/03 13:42:40;;;;;;;26.88;9.68;;;;;;;;;;5075263;28;20020;-31
2023/12/03 13:45:06;;;;;;;24.27;10.45;;;;;;;;;;5076750;28;20483;-27
2023/12/03 13:47:32;;;;;;;24.15;10.48;;;;;;;;;;5076366;28;20027;-27
2023/12/03 13:49:58;;;;;;;25.45;10.38;;;;;;;;;;5076668;28;20013;-27
2023/12/03 13:52:23;;;;;;;24.05;9.52;;;;;;;;;;5075170;28;20060;-26
2023/12/03 13:54:48;;;;;;;17.98;8.32;;;;;;;;;;5076909;28;20059;-27
2023/12/03 13:57:14;;;;;;;18.30;8.45;;;;;;;;;;5074996;28;20021;-27
2023/12/03 13:59:41;;;;;;;19.15;8.00;;;;;;;;;;5075941;28;20056;-27
2023/12/03 14:02:07;;;;;;;17.67;8.18;;;;;;;;;;5076687;28;20048;-27
2023/12/03 14:04:32;;;;;;;21.55;7.78;;;;;;;;;;5076352;28;20074;-27
2023/12/03 14:06:58;;;;;;;16.50;8.18;;;;;;;;;;5076372;28;20013;-27
2023/12/03 14:09:23;;;;;;;16.13;7.88;;;;;;;;;;5076340;28;20028;-28